sensor_id;sensor_type;location;lat;lon;timestamp;pressure;altitude;pressure_sealevel;temperature;humidity
52137;BME280;69622;49.570;10.986;2023-08-24T00:00:07;98633.84;;;18.76;100.00
52137;BME280;69622;49.570;10.986;2023-08-24T00:03:09;98634.66;;;18.76;100.00
52137;BME280;69622;49.570;10.986;2023-08-24T00:06:10;98626.53;;;18.62;100.00
52137;BME280;69622;49.570;10.986;2023-08-24T00:09:12;98631.38;;;18.74;100.00
52137;BME280;69622;49.570;10.986;2023-08-24T00:12:13;98632.94;;;18.59;100.00
52137;BME280;69622;49.570;10.986;2023-08-24T00:15:15;98627.16;;;18.55;100.00
52137;BME280;69622;49.570;10.986;2023-08-24T00:18:16;98629.63;;;18.49;100.00
52137;BME280;69622;49.570;10.986;2023-08-24T00:21:19;98625.56;;;18.63;100.00
52137;BME280;69622;49.570;10.986;2023-08-24T00:24:24;98620.19;;;18.72;100.00
52137;BME280;69622;49.570;10.986;2023-08-24T00:27:25;98613.63;;;18.84;100.00
52137;BME280;69622;49.570;10.986;2023-08-24T00:30:27;98608.69;;;18.81;100.00
52137;BME280;69622;49.570;10.986;2023-08-24T00:33:28;98609.69;;;18.46;100.00
52137;BME280;69622;49.570;10.986;2023-08-24T00:36:31;98609.00;;;18.44;100.00
52137;BME280;69622;49.570;10.986;2023-08-24T00:39:32;98603.53;;;18.64;100.00
52137;BME280;69622;49.570;10.986;2023-08-24T00:42:37;98604.13;;;18.58;100.00
52137;BME280;69622;49.570;10.986;2023-08-24T00:45:39;98606.91;;;18.48;100.00
52137;BME280;69622;49.570;10.986;2023-08-24T00:48:42;98598.81;;;18.41;100.00
52137;BME280;69622;49.570;10.986;2023-08-24T00:51:43;98594.91;;;18.53;100.00
52137;BME280;69622;49.570;10.986;2023-08-24T00:54:45;98602.66;;;18.21;100.00
52137;BME280;69622;49.570;10.986;2023-08-24T00:57:47;98594.69;;;18.39;100.00
52137;BME280;69622;49.570;10.986;2023-08-24T01:00:51;98600.13;;;18.45;100.00
52137;BME280;69622;49.570;10.986;2023-08-24T01:03:54;98586.63;;;18.40;100.00
52137;BME280;69622;49.570;10.986;2023-08-24T01:06:55;98588.91;;;18.35;100.00
52137;BME280;69622;49.570;10.986;2023-08-24T01:09:57;98583.81;;;18.34;100.00
52137;BME280;69622;49.570;10.986;2023-08-24T01:13:02;98583.03;;;18.07;100.00
52137;BME280;69622;49.570;10.986;2023-08-24T01:16:13;98586.28;;;18.01;100.00
52137;BME280;69622;49.570;10.986;2023-08-24T01:19:41;98582.47;;;17.95;100.00
52137;BME280;69622;49.570;10.986;2023-08-24T01:22:55;98590.34;;;17.95;100.00
52137;BME280;69622;49.570;10.986;2023-08-24T01:26:13;98582.31;;;17.71;100.00
52137;BME280;69622;49.570;10.986;2023-08-24T01:29:15;98586.09;;;17.69;100.00
52137;BME280;69622;49.570;10.986;2023-08-24T01:32:16;98585.13;;;17.70;100.00
52137;BME280;69622;49.570;10.986;2023-08-24T01:35:18;98589.53;;;17.69;100.00
52137;BME280;69622;49.570;10.986;2023-08-24T01:38:20;98595.75;;;17.50;100.00
52137;BME280;69622;49.570;10.986;2023-08-24T01:41:28;98589.78;;;17.66;100.00
52137;BME280;69622;49.570;10.986;2023-08-24T01:44:35;98591.72;;;17.74;100.00
52137;BME280;69622;49.570;10.986;2023-08-24T01:47:39;98584.81;;;17.73;100.00
52137;BME280;69622;49.570;10.986;2023-08-24T01:50:43;98581.56;;;17.61;100.00
52137;BME280;69622;49.570;10.986;2023-08-24T01:53:45;98582.09;;;17.47;100.00
52137;BME280;69622;49.570;10.986;2023-08-24T01:56:47;98585.25;;;17.50;100.00
52137;BME280;69622;49.570;10.986;2023-08-24T01:59:48;98577.97;;;17.44;100.00
52137;BME280;69622;49.570;10.986;2023-08-24T02:02:50;98579.56;;;17.55;100.00
52137;BME280;69622;49.570;10.986;2023-08-24T02:05:51;98578.25;;;17.59;100.00
52137;BME280;69622;49.570;10.986;2023-08-24T02:08:53;98578.75;;;17.36;100.00
52137;BME280;69622;49.570;10.986;2023-08-24T02:11:54;98581.66;;;17.33;100.00
52137;BME280;69622;49.570;10.986;2023-08-24T02:14:56;98576.41;;;17.33;100.00
52137;BME280;69622;49.570;10.986;2023-08-24T02:17:57;98580.47;;;17.28;100.00
52137;BME280;69622;49.570;10.986;2023-08-24T02:20:59;98587.69;;;17.44;100.00
52137;BME280;69622;49.570;10.986;2023-08-24T02:24:00;98582.88;;;17.39;100.00
52137;BME280;69622;49.570;10.986;2023-08-24T02:27:02;98570.72;;;17.64;100.00
52137;BME280;69622;49.570;10.986;2023-08-24T02:30:04;98573.03;;;17.67;100.00
52137;BME280;69622;49.570;10.986;2023-08-24T02:33:06;98584.81;;;17.55;100.00
52137;BME280;69622;49.570;10.986;2023-08-24T02:36:07;98582.56;;;17.42;100.00
52137;BME280;69622;49.570;10.986;2023-08-24T02:39:09;98584.53;;;17.40;100.00
52137;BME280;69622;49.570;10.986;2023-08-24T02:42:10;98584.84;;;17.19;100.00
52137;BME280;69622;49.570;10.986;2023-08-24T02:45:12;98594.50;;;17.19;100.00
52137;BME280;69622;49.570;10.986;2023-08-24T02:48:13;98594.44;;;17.28;100.00
52137;BME280;69622;49.570;10.986;2023-08-24T02:51:14;98584.25;;;17.25;100.00
52137;BME280;69622;49.570;10.986;2023-08-24T02:54:16;98587.88;;;17.06;100.00
52137;BME280;69622;49.570;10.986;2023-08-24T02:57:17;98597.16;;;17.01;100.00
52137;BME280;69622;49.570;10.986;2023-08-24T03:00:19;98596.94;;;17.12;100.00
52137;BME280;69622;49.570;10.986;2023-08-24T03:03:20;98593.69;;;17.18;100.00
52137;BME280;69622;49.570;10.986;2023-08-24T03:06:22;98600.59;;;17.19;100.00
52137;BME280;69622;49.570;10.986;2023-08-24T03:09:25;98595.75;;;17.24;100.00
52137;BME280;69622;49.570;10.986;2023-08-24T03:12:26;98601.31;;;17.21;100.00
52137;BME280;69622;49.570;10.986;2023-08-24T03:15:28;98601.41;;;17.20;100.00
52137;BME280;69622;49.570;10.986;2023-08-24T03:18:29;98608.25;;;17.13;100.00
52137;BME280;69622;49.570;10.986;2023-08-24T03:21:31;98605.78;;;17.11;100.00
52137;BME280;69622;49.570;10.986;2023-08-24T03:24:33;98606.97;;;17.17;100.00
52137;BME280;69622;49.570;10.986;2023-08-24T03:27:34;98602.56;;;17.17;100.00
52137;BME280;69622;49.570;10.986;2023-08-24T03:30:37;98603.53;;;17.16;100.00
52137;BME280;69622;49.570;10.986;2023-08-24T03:33:39;98603.00;;;17.13;100.00
52137;BME280;69622;49.570;10.986;2023-08-24T03:36:40;98598.38;;;17.06;100.00
52137;BME280;69622;49.570;10.986;2023-08-24T03:39:41;98605.34;;;16.98;100.00
52137;BME280;69622;49.570;10.986;2023-08-24T03:42:43;98602.91;;;16.87;100.00
52137;BME280;69622;49.570;10.986;2023-08-24T03:45:44;98601.41;;;16.84;100.00
52137;BME280;69622;49.570;10.986;2023-08-24T03:48:46;98591.22;;;16.81;100.00
52137;BME280;69622;49.570;10.986;2023-08-24T03:51:48;98592.25;;;16.70;100.00
52137;BME280;69622;49.570;10.986;2023-08-24T03:54:49;98591.97;;;16.64;100.00
52137;BME280;69622;49.570;10.986;2023-08-24T03:57:51;98574.28;;;16.66;100.00
52137;BME280;69622;49.570;10.986;2023-08-24T04:00:53;98571.94;;;16.63;100.00
52137;BME280;69622;49.570;10.986;2023-08-24T04:03:55;98580.28;;;16.58;100.00
52137;BME280;69622;49.570;10.986;2023-08-24T04:06:59;98571.53;;;16.85;100.00
52137;BME280;69622;49.570;10.986;2023-08-24T04:10:02;98575.16;;;17.02;100.00
52137;BME280;69622;49.570;10.986;2023-08-24T04:13:06;98575.00;;;17.03;100.00
52137;BME280;69622;49.570;10.986;2023-08-24T04:16:07;98578.25;;;16.97;100.00
52137;BME280;69622;49.570;10.986;2023-08-24T04:19:09;98576.91;;;16.93;100.00
52137;BME280;69622;49.570;10.986;2023-08-24T04:26:32;98581.75;;;16.88;100.00
52137;BME280;69622;49.570;10.986;2023-08-24T04:29:34;98578.44;;;16.86;100.00
52137;BME280;69622;49.570;10.986;2023-08-24T04:32:35;98586.72;;;16.73;100.00
52137;BME280;69622;49.570;10.986;2023-08-24T04:35:37;98588.56;;;16.54;100.00
52137;BME280;69622;49.570;10.986;2023-08-24T04:38:38;98596.06;;;16.48;100.00
52137;BME280;69622;49.570;10.986;2023-08-24T04:41:40;98589.53;;;16.53;100.00
52137;BME280;69622;49.570;10.986;2023-08-24T04:44:41;98593.22;;;16.42;100.00
52137;BME280;69622;49.570;10.986;2023-08-24T04:47:43;98598.72;;;16.39;100.00
52137;BME280;69622;49.570;10.986;2023-08-24T04:50:45;98596.59;;;16.52;100.00
52137;BME280;69622;49.570;10.986;2023-08-24T04:53:48;98589.16;;;16.47;100.00
52137;BME280;69622;49.570;10.986;2023-08-24T04:56:49;98595.78;;;16.52;100.00
52137;BME280;69622;49.570;10.986;2023-08-24T04:59:51;98588.69;;;16.62;100.00
52137;BME280;69622;49.570;10.986;2023-08-24T05:02:52;98584.63;;;16.77;100.00
52137;BME280;69622;49.570;10.986;2023-08-24T05:05:54;98578.28;;;16.70;100.00
52137;BME280;69622;49.570;10.986;2023-08-24T05:08:55;98586.06;;;16.62;100.00
52137;BME280;69622;49.570;10.986;2023-08-24T05:11:57;98580.13;;;16.60;100.00
52137;BME280;69622;49.570;10.986;2023-08-24T05:14:58;98582.34;;;16.55;100.00
52137;BME280;69622;49.570;10.986;2023-08-24T05:17:59;98574.72;;;16.61;100.00
52137;BME280;69622;49.570;10.986;2023-08-24T05:21:02;98590.84;;;16.39;100.00
52137;BME280;69622;49.570;10.986;2023-08-24T05:24:04;98584.56;;;16.32;100.00
52137;BME280;69622;49.570;10.986;2023-08-24T05:27:05;98589.41;;;16.27;100.00
52137;BME280;69622;49.570;10.986;2023-08-24T05:30:08;98582.81;;;16.50;100.00
52137;BME280;69622;49.570;10.986;2023-08-24T05:33:09;98578.91;;;16.54;100.00
52137;BME280;69622;49.570;10.986;2023-08-24T05:36:11;98578.13;;;16.71;100.00
52137;BME280;69622;49.570;10.986;2023-08-24T05:39:12;98568.34;;;16.91;100.00
52137;BME280;69622;49.570;10.986;2023-08-24T05:42:14;98572.97;;;17.15;100.00
52137;BME280;69622;49.570;10.986;2023-08-24T05:45:15;98570.28;;;17.25;100.00
52137;BME280;69622;49.570;10.986;2023-08-24T05:48:17;98565.81;;;17.43;100.00
52137;BME280;69622;49.570;10.986;2023-08-24T05:51:18;98566.44;;;17.37;100.00
52137;BME280;69622;49.570;10.986;2023-08-24T05:54:20;98562.81;;;17.56;100.00
52137;BME280;69622;49.570;10.986;2023-08-24T05:57:21;98572.78;;;17.70;100.00
52137;BME280;69622;49.570;10.986;2023-08-24T06:00:23;98565.09;;;17.77;100.00
52137;BME280;69622;49.570;10.986;2023-08-24T06:03:25;98570.00;;;17.72;100.00
52137;BME280;69622;49.570;10.986;2023-08-24T06:06:27;98541.75;;;17.74;100.00
52137;BME280;69622;49.570;10.986;2023-08-24T06:09:28;98503.16;;;17.82;100.00
52137;BME280;69622;49.570;10.986;2023-08-24T06:12:30;98466.22;;;17.92;100.00
52137;BME280;69622;49.570;10.986;2023-08-24T06:15:31;98466.75;;;18.04;100.00
52137;BME280;69622;49.570;10.986;2023-08-24T06:18:33;98490.81;;;18.17;100.00
52137;BME280;69622;49.570;10.986;2023-08-24T06:21:34;98465.59;;;18.06;100.00
52137;BME280;69622;49.570;10.986;2023-08-24T06:24:35;98446.03;;;18.01;100.00
52137;BME280;69622;49.570;10.986;2023-08-24T06:27:37;98473.00;;;18.03;100.00
52137;BME280;69622;49.570;10.986;2023-08-24T06:30:40;98512.53;;;18.19;100.00
52137;BME280;69622;49.570;10.986;2023-08-24T06:33:41;98528.09;;;18.54;100.00
52137;BME280;69622;49.570;10.986;2023-08-24T06:36:43;98511.25;;;18.31;100.00
52137;BME280;69622;49.570;10.986;2023-08-24T06:39:44;98500.78;;;18.05;100.00
52137;BME280;69622;49.570;10.986;2023-08-24T06:42:46;98487.00;;;18.11;100.00
52137;BME280;69622;49.570;10.986;2023-08-24T06:45:47;98492.78;;;18.15;100.00
52137;BME280;69622;49.570;10.986;2023-08-24T06:48:49;98491.47;;;18.27;100.00
52137;BME280;69622;49.570;10.986;2023-08-24T06:51:50;98483.78;;;18.34;100.00
52137;BME280;69622;49.570;10.986;2023-08-24T06:54:52;98497.16;;;18.48;100.00
52137;BME280;69622;49.570;10.986;2023-08-24T06:57:56;98495.06;;;18.68;100.00
52137;BME280;69622;49.570;10.986;2023-08-24T07:00:58;98495.41;;;18.65;100.00
52137;BME280;69622;49.570;10.986;2023-08-24T07:03:59;98496.81;;;18.51;100.00
52137;BME280;69622;49.570;10.986;2023-08-24T07:07:01;98508.06;;;18.70;100.00
52137;BME280;69622;49.570;10.986;2023-08-24T07:10:03;98512.50;;;18.69;100.00
52137;BME280;69622;49.570;10.986;2023-08-24T07:13:07;98513.38;;;18.78;100.00
52137;BME280;69622;49.570;10.986;2023-08-24T07:16:08;98533.94;;;18.82;100.00
52137;BME280;69622;49.570;10.986;2023-08-24T07:19:10;98538.22;;;18.92;100.00
52137;BME280;69622;49.570;10.986;2023-08-24T07:22:11;98547.75;;;18.93;100.00
52137;BME280;69622;49.570;10.986;2023-08-24T07:25:13;98557.19;;;19.03;100.00
52137;BME280;69622;49.570;10.986;2023-08-24T07:28:16;98566.59;;;19.14;100.00
52137;BME280;69622;49.570;10.986;2023-08-24T07:31:17;98566.75;;;19.12;100.00
52137;BME280;69622;49.570;10.986;2023-08-24T07:34:20;98565.59;;;19.15;100.00
52137;BME280;69622;49.570;10.986;2023-08-24T07:37:26;98573.00;;;19.20;100.00
52137;BME280;69622;49.570;10.986;2023-08-24T07:40:27;98574.16;;;19.17;100.00
52137;BME280;69622;49.570;10.986;2023-08-24T07:43:29;98571.03;;;19.30;100.00
52137;BME280;69622;49.570;10.986;2023-08-24T07:46:31;98570.38;;;19.36;100.00
52137;BME280;69622;49.570;10.986;2023-08-24T07:49:33;98565.75;;;19.38;100.00
52137;BME280;69622;49.570;10.986;2023-08-24T07:52:38;98572.50;;;19.40;100.00
52137;BME280;69622;49.570;10.986;2023-08-24T07:55:40;98567.91;;;19.59;100.00
52137;BME280;69622;49.570;10.986;2023-08-24T07:58:42;98570.84;;;19.48;100.00
52137;BME280;69622;49.570;10.986;2023-08-24T08:01:43;98564.44;;;19.66;100.00
52137;BME280;69622;49.570;10.986;2023-08-24T08:04:45;98562.66;;;19.59;100.00
52137;BME280;69622;49.570;10.986;2023-08-24T08:07:46;98562.44;;;19.68;100.00
52137;BME280;69622;49.570;10.986;2023-08-24T08:10:57;98564.88;;;19.86;100.00
52137;BME280;69622;49.570;10.986;2023-08-24T08:13:59;98560.59;;;19.93;100.00
52137;BME280;69622;49.570;10.986;2023-08-24T08:17:01;98552.16;;;20.06;100.00
52137;BME280;69622;49.570;10.986;2023-08-24T08:20:03;98548.28;;;20.25;100.00
52137;BME280;69622;49.570;10.986;2023-08-24T08:23:04;98548.22;;;20.33;100.00
52137;BME280;69622;49.570;10.986;2023-08-24T08:26:07;98531.59;;;20.63;100.00
52137;BME280;69622;49.570;10.986;2023-08-24T08:29:11;98528.53;;;20.83;100.00
52137;BME280;69622;49.570;10.986;2023-08-24T08:32:12;98527.13;;;21.10;100.00
52137;BME280;69622;49.570;10.986;2023-08-24T08:35:14;98518.28;;;21.03;100.00
52137;BME280;69622;49.570;10.986;2023-08-24T08:38:15;98524.50;;;21.33;98.92
52137;BME280;69622;49.570;10.986;2023-08-24T08:41:21;98530.09;;;21.38;98.14
52137;BME280;69622;49.570;10.986;2023-08-24T08:44:25;98528.53;;;21.43;97.46
52137;BME280;69622;49.570;10.986;2023-08-24T08:47:31;98532.34;;;21.41;96.13
52137;BME280;69622;49.570;10.986;2023-08-24T08:50:34;98519.97;;;21.41;98.00
52137;BME280;69622;49.570;10.986;2023-08-24T08:53:36;98514.69;;;21.56;93.46
52137;BME280;69622;49.570;10.986;2023-08-24T08:56:38;98507.03;;;21.76;90.03
52137;BME280;69622;49.570;10.986;2023-08-24T08:59:40;98500.38;;;21.95;90.10
52137;BME280;69622;49.570;10.986;2023-08-24T09:02:43;98496.38;;;21.99;87.89
52137;BME280;69622;49.570;10.986;2023-08-24T09:05:46;98492.78;;;22.21;86.35
52137;BME280;69622;49.570;10.986;2023-08-24T09:08:52;98487.81;;;22.48;92.36
52137;BME280;69622;49.570;10.986;2023-08-24T09:11:53;98467.31;;;22.78;87.02
52137;BME280;69622;49.570;10.986;2023-08-24T09:14:55;98438.53;;;22.75;89.94
52137;BME280;69622;49.570;10.986;2023-08-24T09:17:56;98421.06;;;22.80;89.43
52137;BME280;69622;49.570;10.986;2023-08-24T09:20:58;98440.50;;;22.66;91.81
52137;BME280;69622;49.570;10.986;2023-08-24T09:23:59;98447.00;;;23.06;87.23
52137;BME280;69622;49.570;10.986;2023-08-24T09:27:21;98454.25;;;22.76;93.56
52137;BME280;69622;49.570;10.986;2023-08-24T09:30:22;98456.47;;;22.73;90.81
52137;BME280;69622;49.570;10.986;2023-08-24T09:33:24;98469.34;;;22.76;91.61
52137;BME280;69622;49.570;10.986;2023-08-24T09:36:28;98470.56;;;22.94;91.29
52137;BME280;69622;49.570;10.986;2023-08-24T09:39:32;98459.25;;;22.86;93.98
52137;BME280;69622;49.570;10.986;2023-08-24T09:42:43;98457.69;;;22.91;91.44
52137;BME280;69622;49.570;10.986;2023-08-24T09:45:54;98451.75;;;23.45;82.99
52137;BME280;69622;49.570;10.986;2023-08-24T09:48:56;98460.50;;;23.67;81.24
52137;BME280;69622;49.570;10.986;2023-08-24T09:52:02;98455.00;;;24.16;76.50
52137;BME280;69622;49.570;10.986;2023-08-24T09:55:05;98458.56;;;24.37;79.39
52137;BME280;69622;49.570;10.986;2023-08-24T09:58:08;98457.19;;;24.00;76.15
52137;BME280;69622;49.570;10.986;2023-08-24T10:01:10;98450.88;;;24.14;74.66
52137;BME280;69622;49.570;10.986;2023-08-24T10:04:13;98441.81;;;24.36;72.64
52137;BME280;69622;49.570;10.986;2023-08-24T10:07:19;98431.69;;;24.12;71.62
52137;BME280;69622;49.570;10.986;2023-08-24T10:10:25;98413.44;;;24.63;71.32
52137;BME280;69622;49.570;10.986;2023-08-24T10:13:41;98419.63;;;25.10;63.63
52137;BME280;69622;49.570;10.986;2023-08-24T10:16:45;98410.38;;;24.79;69.63
52137;BME280;69622;49.570;10.986;2023-08-24T10:19:50;98399.94;;;24.78;67.75
52137;BME280;69622;49.570;10.986;2023-08-24T10:22:53;98395.84;;;24.89;67.90
52137;BME280;69622;49.570;10.986;2023-08-24T10:25:55;98395.44;;;24.98;65.44
52137;BME280;69622;49.570;10.986;2023-08-24T10:28:57;98396.06;;;24.94;63.71
52137;BME280;69622;49.570;10.986;2023-08-24T10:32:00;98387.88;;;25.08;65.14
52137;BME280;69622;49.570;10.986;2023-08-24T10:35:02;98392.91;;;25.50;61.21
52137;BME280;69622;49.570;10.986;2023-08-24T10:38:05;98388.25;;;24.92;63.86
52137;BME280;69622;49.570;10.986;2023-08-24T10:41:06;98388.78;;;25.60;60.48
52137;BME280;69622;49.570;10.986;2023-08-24T10:44:20;98385.63;;;25.25;60.97
52137;BME280;69622;49.570;10.986;2023-08-24T10:47:23;98389.72;;;25.92;58.82
52137;BME280;69622;49.570;10.986;2023-08-24T10:50:25;98384.06;;;25.62;62.37
52137;BME280;69622;49.570;10.986;2023-08-24T10:53:37;98372.69;;;25.35;60.96
52137;BME280;69622;49.570;10.986;2023-08-24T10:56:39;98366.56;;;25.22;64.46
52137;BME280;69622;49.570;10.986;2023-08-24T10:59:41;98352.63;;;25.33;64.56
52137;BME280;69622;49.570;10.986;2023-08-24T11:02:52;98350.69;;;25.60;63.83
52137;BME280;69622;49.570;10.986;2023-08-24T11:05:58;98349.56;;;26.25;61.23
52137;BME280;69622;49.570;10.986;2023-08-24T11:09:09;98345.28;;;26.56;57.27
52137;BME280;69622;49.570;10.986;2023-08-24T11:12:15;98349.00;;;26.17;60.48
52137;BME280;69622;49.570;10.986;2023-08-24T11:15:32;98343.47;;;26.75;57.84
52137;BME280;69622;49.570;10.986;2023-08-24T11:18:39;98338.47;;;26.85;53.73
52137;BME280;69622;49.570;10.986;2023-08-24T11:21:42;98319.94;;;26.90;54.72
52137;BME280;69622;49.570;10.986;2023-08-24T11:24:45;98322.28;;;26.80;53.45
52137;BME280;69622;49.570;10.986;2023-08-24T11:27:46;98318.16;;;26.84;52.16
52137;BME280;69622;49.570;10.986;2023-08-24T11:30:50;98320.50;;;26.74;56.37
52137;BME280;69622;49.570;10.986;2023-08-24T11:33:55;98325.75;;;27.05;51.52
52137;BME280;69622;49.570;10.986;2023-08-24T11:36:57;98329.84;;;27.08;51.87
52137;BME280;69622;49.570;10.986;2023-08-24T11:39:58;98328.06;;;27.20;53.82
52137;BME280;69622;49.570;10.986;2023-08-24T11:43:00;98315.47;;;27.09;51.93
52137;BME280;69622;49.570;10.986;2023-08-24T11:46:01;98311.78;;;26.85;54.09
52137;BME280;69622;49.570;10.986;2023-08-24T11:49:06;98305.22;;;27.06;53.40
52137;BME280;69622;49.570;10.986;2023-08-24T11:52:08;98307.84;;;27.31;52.96
52137;BME280;69622;49.570;10.986;2023-08-24T11:55:10;98300.91;;;27.41;53.20
52137;BME280;69622;49.570;10.986;2023-08-24T11:58:15;98301.81;;;27.35;54.81
52137;BME280;69622;49.570;10.986;2023-08-24T12:01:17;98289.19;;;27.79;49.21
52137;BME280;69622;49.570;10.986;2023-08-24T12:04:20;98292.38;;;27.99;49.28
52137;BME280;69622;49.570;10.986;2023-08-24T12:07:21;98287.94;;;27.93;50.43
52137;BME280;69622;49.570;10.986;2023-08-24T12:10:23;98279.53;;;27.78;51.06
52137;BME280;69622;49.570;10.986;2023-08-24T12:13:24;98278.56;;;27.72;51.09
52137;BME280;69622;49.570;10.986;2023-08-24T12:16:26;98277.03;;;27.65;51.37
52137;BME280;69622;49.570;10.986;2023-08-24T12:19:28;98263.97;;;27.87;48.07
52137;BME280;69622;49.570;10.986;2023-08-24T12:22:30;98254.47;;;27.91;50.18
52137;BME280;69622;49.570;10.986;2023-08-24T12:25:41;98254.53;;;27.72;50.44
52137;BME280;69622;49.570;10.986;2023-08-24T12:28:49;98247.66;;;27.65;53.33
52137;BME280;69622;49.570;10.986;2023-08-24T12:31:51;98241.03;;;28.21;49.93
52137;BME280;69622;49.570;10.986;2023-08-24T12:34:52;98230.00;;;28.17;52.37
52137;BME280;69622;49.570;10.986;2023-08-24T12:42:16;98226.19;;;28.25;48.66
52137;BME280;69622;49.570;10.986;2023-08-24T12:45:18;98216.91;;;28.27;50.32
52137;BME280;69622;49.570;10.986;2023-08-24T12:48:19;98220.16;;;28.29;50.57
52137;BME280;69622;49.570;10.986;2023-08-24T12:51:20;98214.34;;;28.32;51.18
52137;BME280;69622;49.570;10.986;2023-08-24T12:54:22;98203.41;;;28.34;51.90
52137;BME280;69622;49.570;10.986;2023-08-24T12:57:26;98192.25;;;28.60;51.74
52137;BME280;69622;49.570;10.986;2023-08-24T13:00:27;98189.28;;;29.37;48.19
52137;BME280;69622;49.570;10.986;2023-08-24T13:03:29;98189.38;;;29.71;50.03
52137;BME280;69622;49.570;10.986;2023-08-24T13:06:30;98177.16;;;29.63;49.37
52137;BME280;69622;49.570;10.986;2023-08-24T13:09:32;98175.91;;;29.83;48.29
52137;BME280;69622;49.570;10.986;2023-08-24T13:12:34;98170.44;;;29.77;47.28
52137;BME280;69622;49.570;10.986;2023-08-24T13:15:36;98168.03;;;30.09;45.66
52137;BME280;69622;49.570;10.986;2023-08-24T13:18:37;98159.47;;;30.29;47.02
52137;BME280;69622;49.570;10.986;2023-08-24T13:21:38;98164.31;;;30.10;47.41
52137;BME280;69622;49.570;10.986;2023-08-24T13:24:41;98158.09;;;29.93;47.07
52137;BME280;69622;49.570;10.986;2023-08-24T13:27:45;98143.09;;;29.92;49.64
52137;BME280;69622;49.570;10.986;2023-08-24T13:30:46;98143.06;;;30.26;48.46
52137;BME280;69622;49.570;10.986;2023-08-24T13:33:49;98130.47;;;30.26;47.93
52137;BME280;69622;49.570;10.986;2023-08-24T13:36:51;98120.16;;;31.00;47.68
52137;BME280;69622;49.570;10.986;2023-08-24T13:39:52;98117.09;;;30.92;46.51
52137;BME280;69622;49.570;10.986;2023-08-24T13:42:54;98117.53;;;31.27;43.21
52137;BME280;69622;49.570;10.986;2023-08-24T13:45:55;98124.56;;;30.85;44.87
52137;BME280;69622;49.570;10.986;2023-08-24T13:48:57;98127.44;;;30.78;47.37
52137;BME280;69622;49.570;10.986;2023-08-24T13:51:58;98123.38;;;30.76;46.34
52137;BME280;69622;49.570;10.986;2023-08-24T13:55:00;98116.94;;;30.77;46.08
52137;BME280;69622;49.570;10.986;2023-08-24T13:58:13;98111.84;;;30.36;45.14
52137;BME280;69622;49.570;10.986;2023-08-24T14:01:15;98115.59;;;30.35;44.92
52137;BME280;69622;49.570;10.986;2023-08-24T14:04:16;98115.38;;;30.20;46.19
52137;BME280;69622;49.570;10.986;2023-08-24T14:07:18;98111.34;;;29.84;46.12
52137;BME280;69622;49.570;10.986;2023-08-24T14:10:20;98110.59;;;29.89;44.29
52137;BME280;69622;49.570;10.986;2023-08-24T14:13:21;98101.44;;;30.40;44.72
52137;BME280;69622;49.570;10.986;2023-08-24T14:16:23;98101.97;;;30.81;43.34
52137;BME280;69622;49.570;10.986;2023-08-24T14:19:25;98096.94;;;30.89;43.03
52137;BME280;69622;49.570;10.986;2023-08-24T14:22:27;98099.78;;;31.26;41.44
52137;BME280;69622;49.570;10.986;2023-08-24T14:25:29;98095.50;;;31.25;43.64
52137;BME280;69622;49.570;10.986;2023-08-24T14:28:56;98093.97;;;31.40;42.06
52137;BME280;69622;49.570;10.986;2023-08-24T14:31:58;98090.94;;;31.58;42.61
52137;BME280;69622;49.570;10.986;2023-08-24T14:34:59;98083.38;;;31.55;43.07
52137;BME280;69622;49.570;10.986;2023-08-24T14:38:01;98083.75;;;31.37;41.77
52137;BME280;69622;49.570;10.986;2023-08-24T14:41:02;98085.97;;;31.45;42.57
52137;BME280;69622;49.570;10.986;2023-08-24T14:44:04;98088.59;;;31.72;42.69
52137;BME280;69622;49.570;10.986;2023-08-24T14:47:05;98090.69;;;31.59;41.96
52137;BME280;69622;49.570;10.986;2023-08-24T14:50:07;98083.00;;;31.41;41.59
52137;BME280;69622;49.570;10.986;2023-08-24T14:53:09;98071.66;;;31.34;41.49
52137;BME280;69622;49.570;10.986;2023-08-24T14:56:10;98073.75;;;31.05;42.10
52137;BME280;69622;49.570;10.986;2023-08-24T14:59:12;98067.25;;;31.55;42.65
52137;BME280;69622;49.570;10.986;2023-08-24T15:02:13;98068.06;;;30.75;44.56
52137;BME280;69622;49.570;10.986;2023-08-24T15:05:15;98067.00;;;30.54;43.76
52137;BME280;69622;49.570;10.986;2023-08-24T15:08:16;98073.81;;;30.39;44.67
52137;BME280;69622;49.570;10.986;2023-08-24T15:11:18;98070.00;;;30.57;45.02
52137;BME280;69622;49.570;10.986;2023-08-24T15:14:20;98078.84;;;30.36;45.46
52137;BME280;69622;49.570;10.986;2023-08-24T15:17:21;98073.94;;;30.11;44.41
52137;BME280;69622;49.570;10.986;2023-08-24T15:20:22;98065.91;;;30.11;47.62
52137;BME280;69622;49.570;10.986;2023-08-24T15:23:29;98077.94;;;30.47;45.88
52137;BME280;69622;49.570;10.986;2023-08-24T15:26:30;98072.44;;;30.81;43.14
52137;BME280;69622;49.570;10.986;2023-08-24T15:29:32;98081.72;;;30.95;45.16
52137;BME280;69622;49.570;10.986;2023-08-24T15:32:33;98082.91;;;30.17;44.86
52137;BME280;69622;49.570;10.986;2023-08-24T15:35:36;98071.97;;;29.68;46.23
52137;BME280;69622;49.570;10.986;2023-08-24T15:38:38;98074.47;;;29.58;48.51
52137;BME280;69622;49.570;10.986;2023-08-24T15:41:40;98069.84;;;29.87;46.25
52137;BME280;69622;49.570;10.986;2023-08-24T15:44:41;98062.50;;;29.82;46.95
52137;BME280;69622;49.570;10.986;2023-08-24T15:47:43;98059.09;;;30.03;46.49
52137;BME280;69622;49.570;10.986;2023-08-24T15:50:44;98071.97;;;29.85;47.14
52137;BME280;69622;49.570;10.986;2023-08-24T15:53:46;98086.25;;;29.57;45.96
52137;BME280;69622;49.570;10.986;2023-08-24T15:56:47;98101.66;;;29.49;47.45